Time;durP1;ratioP1;P1;durP2;ratioP2;P2;SDS_P1;SDS_P2;PMS_P1;PMS_P2;Temp;Humidity;BMP_temperature;BMP_pressure;BME280_temperature;BME280_humidity;BME280_pressure;Samples;Min_cycle;Max_cycle;Signal;HPM_P1;HPM_P2
2023/12/05 00:01:33;;;;;;;2.85;0.80;;;29.20;99.90;;;;;;5052950;28;20666;-76
2023/12/05 00:04:04;;;;;;;1.13;0.80;;;29.20;99.90;;;;;;5052739;28;20237;-74
2023/12/05 00:06:35;;;;;;;2.15;0.90;;;29.30;99.90;;;;;;5053013;28;20201;-77
2023/12/05 00:09:06;;;;;;;2.75;1.02;;;29.50;99.90;;;;;;5053394;28;20717;-75
2023/12/05 00:11:37;;;;;;;2.92;0.70;;;29.50;99.90;;;;;;5052701;28;20190;-77
2023/12/05 00:14:09;;;;;;;1.33;0.93;;;29.50;99.90;;;;;;5052700;28;20205;-74
2023/12/05 00:16:40;;;;;;;2.97;1.10;;;29.50;99.90;;;;;;5052864;28;20193;-74
2023/12/05 00:19:11;;;;;;;3.85;0.90;;;29.60;99.90;;;;;;5052791;28;20194;-76
2023/12/05 00:21:42;;;;;;;1.77;0.90;;;29.70;99.90;;;;;;5053016;28;20194;-76
2023/12/05 00:24:12;;;;;;;2.42;0.90;;;29.70;99.90;;;;;;5052675;28;20192;-77
2023/12/05 00:26:43;;;;;;;4.80;1.40;;;29.70;99.90;;;;;;5052569;28;20190;-77
2023/12/05 00:29:16;;;;;;;6.07;1.20;;;29.70;99.90;;;;;;5052725;28;20201;-78
2023/12/05 00:31:47;;;;;;;2.58;1.20;;;29.70;99.90;;;;;;5052848;28;20221;-78
2023/12/05 00:34:18;;;;;;;4.85;1.05;;;29.70;99.90;;;;;;5053238;28;20239;-75
2023/12/05 00:36:48;;;;;;;3.17;1.05;;;29.90;99.90;;;;;;5056444;28;20537;-78
2023/12/05 00:39:19;;;;;;;3.40;1.10;;;29.70;99.90;;;;;;5056588;28;20196;-76
2023/12/05 00:41:50;;;;;;;2.45;1.20;;;29.80;99.90;;;;;;5056215;28;20666;-80
2023/12/05 00:44:23;;;;;;;3.45;1.00;;;29.80;99.90;;;;;;5056329;28;20236;-77
2023/12/05 00:46:53;;;;;;;4.55;1.00;;;29.90;99.90;;;;;;5056317;28;20204;-78
2023/12/05 00:49:24;;;;;;;2.58;1.10;;;29.90;99.90;;;;;;5056257;28;20194;-78
2023/12/05 00:51:55;;;;;;;4.20;1.23;;;29.80;99.90;;;;;;5056576;28;20289;-77
2023/12/05 00:54:26;;;;;;;3.95;0.93;;;29.90;99.90;;;;;;5056026;28;20214;-77
2023/12/05 00:56:57;;;;;;;4.80;1.10;;;29.90;99.90;;;;;;5056040;28;20567;-79
2023/12/05 00:59:29;;;;;;;2.95;1.27;;;30.00;99.90;;;;;;5056248;28;20276;-78
2023/12/05 01:02:00;;;;;;;4.13;1.10;;;29.90;99.90;;;;;;5056620;28;20190;-77
2023/12/05 01:04:31;;;;;;;2.40;1.00;;;29.90;99.90;;;;;;5056171;28;20233;-78
2023/12/05 01:07:02;;;;;;;6.20;1.17;;;29.70;99.90;;;;;;5056463;28;20196;-78
2023/12/05 01:09:32;;;;;;;3.88;0.98;;;29.80;99.90;;;;;;5056103;28;20197;-77
2023/12/05 01:12:03;;;;;;;4.10;1.23;;;30.00;99.90;;;;;;5056209;28;20194;-77
2023/12/05 01:14:36;;;;;;;3.03;1.00;;;30.00;99.90;;;;;;5056172;28;20259;-77
2023/12/05 01:17:07;;;;;;;4.57;1.45;;;30.10;99.90;;;;;;5056122;28;20200;-78
2023/12/05 01:19:38;;;;;;;3.35;1.17;;;30.20;99.90;;;;;;5055745;28;20208;-78
2023/12/05 01:22:08;;;;;;;6.05;1.35;;;30.30;99.90;;;;;;5056585;28;20285;-77
2023/12/05 01:24:41;;;;;;;5.38;1.25;;;30.30;99.90;;;;;;5055888;28;20654;-78
2023/12/05 01:27:12;;;;;;;3.40;1.20;;;30.20;99.90;;;;;;5055708;28;20190;-79
2023/12/05 01:29:45;;;;;;;3.05;1.10;;;30.20;99.90;;;;;;5055660;28;20280;-78
2023/12/05 01:32:16;;;;;;;4.40;1.27;;;30.10;99.90;;;;;;5055506;28;20630;-77
2023/12/05 01:34:47;;;;;;;3.17;1.10;;;30.20;99.90;;;;;;5055376;28;20218;-79
2023/12/05 01:37:18;;;;;;;3.53;1.30;;;30.40;99.90;;;;;;5055554;28;20190;-77
2023/12/05 01:39:48;;;;;;;5.88;1.27;;;30.40;99.90;;;;;;5055399;28;20190;-79
2023/12/05 01:42:19;;;;;;;3.55;1.73;;;30.40;99.90;;;;;;5055570;28;20191;-78
2023/12/05 01:44:52;;;;;;;3.50;1.02;;;30.50;99.90;;;;;;5055666;28;20263;-78
2023/12/05 01:47:23;;;;;;;4.20;1.23;;;30.60;99.90;;;;;;5054658;28;20189;-80
2023/12/05 01:49:54;;;;;;;5.43;1.23;;;30.60;99.90;;;;;;5055173;28;20202;-81
2023/12/05 01:52:24;;;;;;;3.85;1.20;;;30.60;99.90;;;;;;5055013;28;20572;-79
2023/12/05 01:54:56;;;;;;;5.30;1.00;;;30.60;99.90;;;;;;5054755;28;20217;-78
2023/12/05 01:57:28;;;;;;;2.80;1.38;;;30.60;99.90;;;;;;5054975;28;20225;-79
2023/12/05 06:24:55;;;;;;;4.68;1.50;;;29.10;99.90;;;;;;5031074;28;20569;-80
2023/12/05 06:27:26;;;;;;;6.72;1.63;;;29.00;99.90;;;;;;5030737;28;20713;-80
2023/12/05 06:29:56;;;;;;;5.20;1.50;;;29.00;99.90;;;;;;5030622;28;20194;-78
2023/12/05 06:32:27;;;;;;;5.57;1.52;;;28.90;99.90;;;;;;5030615;28;20226;-78
2023/12/05 06:34:59;;;;;;;4.40;1.70;;;28.70;99.90;;;;;;5030848;28;20198;-79
2023/12/05 06:37:30;;;;;;;5.15;1.35;;;28.80;99.90;;;;;;5030993;28;20194;-78
2023/12/05 06:40:03;;;;;;;6.93;2.08;;;28.90;99.90;;;;;;5030632;28;20201;-79
2023/12/05 06:42:34;;;;;;;5.05;1.73;;;28.90;99.90;;;;;;5030622;28;20289;-79
2023/12/05 06:45:05;;;;;;;5.10;2.13;;;28.90;99.90;;;;;;5030342;28;20186;-78
2023/12/05 06:47:36;;;;;;;5.32;2.00;;;28.90;99.90;;;;;;5030519;28;20647;-80
2023/12/05 06:50:11;;;;;;;6.40;1.98;;;28.80;99.90;;;;;;5030391;28;20643;-79
2023/12/05 06:52:42;;;;;;;4.65;1.50;;;28.70;99.90;;;;;;5030668;28;20202;-78
2023/12/05 06:55:14;;;;;;;5.13;1.90;;;28.70;99.90;;;;;;5030325;28;20206;-78
2023/12/05 06:57:45;;;;;;;7.65;2.00;;;28.70;99.90;;;;;;5030152;28;20222;-79
2023/12/05 07:00:16;;;;;;;5.53;1.98;;;28.60;99.90;;;;;;5030537;28;20631;-78
2023/12/05 07:02:47;;;;;;;7.88;2.00;;;28.50;99.90;;;;;;5030062;28;20248;-78
2023/12/05 07:05:18;;;;;;;4.97;2.30;;;28.40;99.90;;;;;;5030108;28;20194;-77
2023/12/05 07:07:49;;;;;;;7.85;2.15;;;28.30;99.90;;;;;;5030398;28;20194;-78
2023/12/05 07:10:27;;;;;;;6.47;1.90;;;28.30;99.90;;;;;;5030003;28;20194;-79
2023/12/05 07:12:58;;;;;;;6.00;1.85;;;28.30;99.90;;;;;;5029728;28;20190;-79
2023/12/05 07:15:29;;;;;;;4.47;1.77;;;28.20;99.90;;;;;;5030232;28;20197;-78
2023/12/05 07:17:59;;;;;;;6.47;2.17;;;28.20;99.90;;;;;;5029918;28;20754;-78
2023/12/05 07:20:30;;;;;;;4.82;1.85;;;28.20;99.90;;;;;;5029760;28;20197;-79
2023/12/05 07:23:01;;;;;;;8.98;1.90;;;28.10;99.90;;;;;;5035138;28;20237;-80
2023/12/05 07:25:34;;;;;;;4.72;1.75;;;28.10;99.90;;;;;;5049511;28;20190;-79
2023/12/05 07:28:04;;;;;;;5.65;2.03;;;28.10;99.90;;;;;;5049357;28;20706;-78
2023/12/05 07:30:35;;;;;;;6.80;1.88;;;28.10;99.90;;;;;;5049480;28;20293;-79
2023/12/05 07:33:06;;;;;;;6.20;1.98;;;28.00;99.90;;;;;;5049307;28;20701;-79
2023/12/05 07:35:37;;;;;;;3.53;1.50;;;28.00;99.90;;;;;;5039095;28;20197;-80
2023/12/05 07:38:08;;;;;;;4.85;1.50;;;28.00;99.90;;;;;;5035821;28;20646;-78
2023/12/05 07:40:41;;;;;;;8.38;1.70;;;27.90;99.90;;;;;;5035515;28;20191;-78
2023/12/05 07:43:14;;;;;;;6.93;1.80;;;27.90;99.90;;;;;;5034456;28;20218;-79
2023/12/05 07:45:45;;;;;;;4.45;1.70;;;27.90;99.90;;;;;;5035404;28;20190;-79
2023/12/05 07:48:16;;;;;;;5.75;1.80;;;27.80;99.90;;;;;;5035897;28;20196;-78
2023/12/05 07:50:47;;;;;;;5.00;1.63;;;27.80;99.90;;;;;;5035460;28;20233;-78
2023/12/05 07:53:18;;;;;;;4.15;1.67;;;27.80;99.90;;;;;;5035842;28;20248;-78
2023/12/05 07:55:50;;;;;;;6.43;2.25;;;27.80;99.90;;;;;;5035617;28;20194;-77
2023/12/05 07:58:21;;;;;;;6.75;2.00;;;27.80;99.90;;;;;;5035714;28;20258;-78
2023/12/05 08:00:52;;;;;;;5.70;1.90;;;27.80;99.90;;;;;;5035970;28;20273;-75
2023/12/05 08:03:23;;;;;;;6.97;1.90;;;27.80;99.90;;;;;;5035351;28;20309;-78
2023/12/05 08:05:54;;;;;;;7.70;2.00;;;27.70;99.90;;;;;;5035621;28;20194;-78
2023/12/05 08:08:25;;;;;;;5.75;2.17;;;27.60;99.90;;;;;;5035562;28;20190;-78
2023/12/05 08:10:58;;;;;;;6.18;2.10;;;27.60;99.90;;;;;;5035312;28;20217;-79
2023/12/05 08:13:28;;;;;;;8.50;2.08;;;27.50;99.90;;;;;;5035355;28;20277;-76
2023/12/05 08:15:59;;;;;;;7.57;2.15;;;27.50;99.90;;;;;;5035452;28;20209;-78
2023/12/05 08:18:30;;;;;;;5.65;1.90;;;27.40;99.90;;;;;;5035395;28;20193;-77
2023/12/05 08:21:01;;;;;;;8.27;2.13;;;27.30;99.90;;;;;;5035377;28;20194;-76
2023/12/05 08:23:32;;;;;;;6.20;2.22;;;27.30;99.90;;;;;;5034932;28;20238;-78
2023/12/05 08:26:05;;;;;;;5.70;1.90;;;27.20;99.90;;;;;;5035341;28;20269;-79
2023/12/05 08:28:37;;;;;;;8.30;2.45;;;27.10;99.90;;;;;;5035239;28;20300;-79
2023/12/05 08:31:08;;;;;;;9.20;2.20;;;27.00;99.90;;;;;;5035011;28;20266;-78
2023/12/05 08:33:39;;;;;;;5.15;2.40;;;26.90;99.90;;;;;;5035012;28;20199;-79
2023/12/05 08:36:10;;;;;;;6.45;2.00;;;26.90;99.90;;;;;;5035033;28;20198;-78
2023/12/05 08:38:41;;;;;;;8.10;2.33;;;26.90;99.90;;;;;;5035045;28;20193;-78
2023/12/05 08:41:20;;;;;;;5.18;2.28;;;26.80;99.90;;;;;;5034684;28;20277;-79
2023/12/05 08:43:51;;;;;;;7.05;2.13;;;26.70;99.90;;;;;;5034752;28;20292;-79
2023/12/05 08:46:22;;;;;;;5.07;2.30;;;26.70;99.90;;;;;;5034137;28;20221;-79
2023/12/05 08:48:53;;;;;;;8.55;2.65;;;26.60;99.90;;;;;;5034781;28;20281;-79
2023/12/05 08:51:23;;;;;;;8.77;3.10;;;26.60;99.90;;;;;;5034690;28;20298;-79
2023/12/05 08:53:54;;;;;;;10.65;2.35;;;26.60;99.90;;;;;;5034409;28;20282;-79
2023/12/05 08:56:27;;;;;;;7.15;2.05;;;26.50;99.90;;;;;;5034618;28;20194;-80
2023/12/05 08:58:58;;;;;;;8.85;2.28;;;26.50;99.90;;;;;;5034627;28;20273;-79
2023/12/05 09:01:30;;;;;;;6.82;2.42;;;26.40;99.90;;;;;;5034520;28;20249;-79
2023/12/05 09:04:00;;;;;;;8.90;2.35;;;26.40;99.90;;;;;;5034366;28;20343;-79
2023/12/05 09:06:31;;;;;;;6.20;2.53;;;26.30;99.90;;;;;;5034437;28;20725;-79
2023/12/05 09:09:03;;;;;;;6.03;2.22;;;26.30;99.90;;;;;;5034193;28;20277;-78
2023/12/05 09:11:36;;;;;;;4.88;2.13;;;26.20;99.90;;;;;;5034332;28;20244;-79
2023/12/05 09:14:07;;;;;;;8.48;2.30;;;26.10;99.90;;;;;;5034434;28;20657;-79
2023/12/05 09:16:39;;;;;;;4.22;2.05;;;26.10;99.90;;;;;;5034331;28;20673;-78
2023/12/05 09:19:10;;;;;;;6.55;2.03;;;26.10;99.90;;;;;;5034111;28;20563;-78
2023/12/05 09:21:40;;;;;;;10.05;2.10;;;26.00;99.90;;;;;;5034089;28;20212;-79
2023/12/05 09:24:12;;;;;;;6.45;1.83;;;25.90;99.90;;;;;;5033519;28;20333;-79
2023/12/05 09:26:45;;;;;;;8.32;2.60;;;25.90;99.90;;;;;;5034047;28;20220;-80
2023/12/05 09:29:16;;;;;;;6.65;2.10;;;25.90;99.90;;;;;;5034034;28;20616;-78
2023/12/05 09:31:46;;;;;;;6.85;1.90;;;25.80;99.90;;;;;;5034132;28;20225;-79
2023/12/05 09:34:18;;;;;;;8.48;2.20;;;25.80;99.90;;;;;;5033891;28;20201;-78
2023/12/05 09:36:49;;;;;;;6.75;1.88;;;25.80;99.90;;;;;;5033885;28;20217;-78
2023/12/05 09:39:20;;;;;;;6.82;2.03;;;25.70;99.90;;;;;;5033640;28;20198;-78
2023/12/05 09:41:55;;;;;;;7.20;2.25;;;25.70;99.90;;;;;;5033828;28;20654;-79
2023/12/05 09:44:27;;;;;;;7.55;1.60;;;25.70;99.90;;;;;;5033705;28;20303;-78
2023/12/05 09:47:06;;;;;;;9.57;2.17;;;25.60;99.90;;;;;;5034523;28;20692;-79
2023/12/05 09:49:37;;;;;;;5.22;1.85;;;25.60;99.90;;;;;;5033674;28;20194;-78
2023/12/05 09:52:09;;;;;;;10.35;2.20;;;25.60;99.90;;;;;;5033438;28;20555;-79
2023/12/05 09:54:42;;;;;;;10.45;2.10;;;25.50;99.90;;;;;;5033628;28;20197;-79
2023/12/05 09:57:15;;;;;;;5.93;2.05;;;25.50;99.90;;;;;;5033438;28;20733;-79
2023/12/05 09:59:46;;;;;;;3.83;1.75;;;25.40;99.90;;;;;;5033520;28;20191;-79
2023/12/05 10:02:18;;;;;;;7.15;2.10;;;25.40;99.90;;;;;;5033860;28;20289;-79
2023/12/05 10:04:51;;;;;;;7.05;2.00;;;25.40;99.90;;;;;;5033492;28;20305;-79
2023/12/05 10:07:23;;;;;;;4.03;1.77;;;25.40;99.90;;;;;;5033219;28;20277;-79
2023/12/05 10:09:54;;;;;;;6.68;1.95;;;25.40;99.90;;;;;;5033749;28;20197;-79
2023/12/05 10:12:26;;;;;;;5.38;2.03;;;25.40;99.90;;;;;;5033462;28;20293;-79
2023/12/05 10:14:58;;;;;;;7.30;2.10;;;25.30;99.90;;;;;;5033534;28;20187;-79
2023/12/05 10:17:32;;;;;;;7.45;2.28;;;25.30;99.90;;;;;;5033474;28;20194;-78
2023/12/05 10:20:04;;;;;;;6.15;2.05;;;25.40;99.90;;;;;;5033393;28;20189;-76
2023/12/05 10:22:35;;;;;;;5.72;1.92;;;25.40;99.90;;;;;;5032894;28;20190;-76
2023/12/05 10:25:08;;;;;;;9.10;2.10;;;25.40;99.90;;;;;;5033227;28;20267;-78
2023/12/05 10:27:41;;;;;;;8.73;2.50;;;25.40;99.90;;;;;;5033528;28;20229;-76
2023/12/05 10:30:12;;;;;;;7.45;2.40;;;25.40;99.90;;;;;;5033055;28;20310;-76
2023/12/05 10:32:44;;;;;;;8.23;2.10;;;25.40;99.90;;;;;;5033335;28;20222;-78
2023/12/05 10:35:15;;;;;;;5.30;2.50;;;25.40;99.90;;;;;;5032981;28;20190;-78
2023/12/05 10:37:46;;;;;;;6.93;2.38;;;25.40;99.90;;;;;;5033127;28;20277;-78
2023/12/05 10:40:17;;;;;;;8.13;2.35;;;25.40;99.90;;;;;;5033118;28;20307;-79
2023/12/05 10:42:53;;;;;;;6.28;2.33;;;25.40;99.90;;;;;;5033045;28;20244;-76
2023/12/05 10:45:24;;;;;;;6.15;2.40;;;25.40;99.90;;;;;;5032969;28;20218;-78
2023/12/05 10:47:55;;;;;;;3.67;2.00;;;25.40;99.90;;;;;;5033079;28;20201;-79
2023/12/05 10:50:26;;;;;;;7.00;2.30;;;25.50;99.90;;;;;;5032819;28;20605;-78
2023/12/05 10:52:56;;;;;;;6.50;2.63;;;25.50;99.90;;;;;;5032958;28;20195;-77
2023/12/05 10:55:28;;;;;;;5.25;2.35;;;25.40;99.90;;;;;;5032974;28;20198;-76
2023/12/05 10:58:01;;;;;;;5.28;2.72;;;25.40;99.90;;;;;;5032927;28;20702;-76
2023/12/05 11:00:33;;;;;;;8.27;3.08;;;25.50;99.90;;;;;;5032859;28;20233;-78
2023/12/05 11:03:05;;;;;;;5.38;2.60;;;25.40;99.90;;;;;;5032790;28;20622;-76
2023/12/05 11:05:36;;;;;;;8.40;2.60;;;25.40;99.90;;;;;;5032894;28;20222;-78
2023/12/05 11:08:07;;;;;;;8.55;3.00;;;25.40;99.90;;;;;;5032897;28;20706;-78
2023/12/05 11:10:39;;;;;;;7.95;3.00;;;25.40;99.90;;;;;;5035000;28;20269;-78
2023/12/05 11:13:14;;;;;;;9.73;3.13;;;25.40;99.90;;;;;;5036543;28;20197;-76
2023/12/05 11:15:48;;;;;;;6.30;2.75;;;25.50;99.90;;;;;;5036536;28;20700;-78
2023/12/05 11:18:28;;;;;;;10.10;3.15;;;25.50;99.90;;;;;;5036494;28;20190;-77
2023/12/05 11:21:12;;;;;;;6.60;2.97;;;25.50;99.90;;;;;;5036758;28;20221;-79
2023/12/05 11:24:01;;;;;;;7.93;2.92;;;25.50;99.90;;;;;;5036138;28;20233;-78
2023/12/05 11:26:59;;;;;;;6.85;3.00;;;25.40;99.90;;;;;;5036343;28;20279;-76
2023/12/05 11:29:48;;;;;;;6.25;3.15;;;25.40;99.90;;;;;;5036606;28;20690;-78
2023/12/05 11:32:27;;;;;;;7.18;3.17;;;25.40;99.90;;;;;;5036142;28;20186;-78
2023/12/05 11:35:08;;;;;;;8.30;3.28;;;25.40;99.90;;;;;;5036309;28;20226;-77
2023/12/05 11:37:52;;;;;;;11.63;3.35;;;25.30;99.90;;;;;;5036102;28;20281;-78
2023/12/05 11:40:23;;;;;;;7.93;3.55;;;25.30;99.90;;;;;;5036017;28;20264;-78
2023/12/05 11:43:13;;;;;;;5.93;3.15;;;25.30;99.90;;;;;;5035841;28;20564;-78
2023/12/05 11:45:47;;;;;;;8.57;3.10;;;25.30;99.90;;;;;;5035925;28;20218;-78
2023/12/05 11:48:25;;;;;;;7.85;3.25;;;25.30;99.90;;;;;;5035747;28;20201;-78
2023/12/05 11:50:58;;;;;;;8.80;3.45;;;25.30;99.90;;;;;;5035940;28;20601;-78
2023/12/05 11:53:29;;;;;;;7.25;3.33;;;25.20;99.90;;;;;;5035889;28;20190;-78
2023/12/05 11:56:01;;;;;;;8.52;3.58;;;25.20;99.90;;;;;;5036126;28;20191;-78
2023/12/05 11:58:32;;;;;;;7.75;3.33;;;25.20;99.90;;;;;;5035802;28;20642;-78
2023/12/05 12:01:10;;;;;;;8.25;2.90;;;25.20;99.90;;;;;;5035705;28;20272;-78
2023/12/05 12:03:55;;;;;;;7.35;3.47;;;25.20;99.90;;;;;;5035393;28;20194;-79
2023/12/05 12:06:27;;;;;;;7.43;2.90;;;25.10;99.90;;;;;;5035505;28;20633;-76
2023/12/05 12:08:58;;;;;;;7.18;2.92;;;25.10;99.90;;;;;;5035630;28;20191;-77
2023/12/05 12:11:29;;;;;;;6.38;2.97;;;25.00;99.90;;;;;;5035441;28;20195;-77
2023/12/05 12:14:00;;;;;;;7.18;3.03;;;25.00;99.90;;;;;;5035517;28;20221;-77
2023/12/05 12:16:32;;;;;;;8.63;3.25;;;25.00;99.90;;;;;;5035237;28;20194;-75
2023/12/05 12:19:08;;;;;;;9.50;3.30;;;24.90;99.90;;;;;;5035710;28;20194;-76
2023/12/05 12:21:39;;;;;;;7.38;3.30;;;24.90;99.90;;;;;;5035124;28;20229;-77
2023/12/05 12:24:19;;;;;;;6.90;3.10;;;24.90;99.90;;;;;;5035129;28;20312;-78
2023/12/05 12:26:56;;;;;;;7.10;3.08;;;24.90;99.90;;;;;;5035309;28;20200;-78
2023/12/05 12:29:27;;;;;;;5.90;3.00;;;24.90;99.90;;;;;;5035178;28;20276;-78
2023/12/05 12:32:11;;;;;;;10.30;3.22;;;24.80;99.90;;;;;;5034819;28;20309;-79
2023/12/05 12:34:45;;;;;;;6.97;3.08;;;24.80;99.90;;;;;;5033200;28;20206;-78
2023/12/05 12:37:18;;;;;;;6.93;3.22;;;24.80;99.90;;;;;;5033233;28;20189;-75
2023/12/05 12:39:50;;;;;;;7.18;2.90;;;24.80;99.90;;;;;;5034556;28;20217;-78
2023/12/05 12:42:21;;;;;;;7.38;2.72;;;24.80;99.90;;;;;;5034779;28;20244;-77
2023/12/05 12:44:55;;;;;;;5.93;3.15;;;24.80;99.90;;;;;;5034801;28;20249;-78
2023/12/05 12:47:27;;;;;;;10.38;3.40;;;24.80;99.90;;;;;;5034578;28;20277;-78
2023/12/05 12:50:00;;;;;;;8.25;3.40;;;24.70;99.90;;;;;;5034750;28;20570;-79
2023/12/05 12:52:31;;;;;;;8.35;3.10;;;24.70;99.90;;;;;;5034946;28;20622;-78
2023/12/05 12:55:06;;;;;;;8.13;3.30;;;24.70;99.90;;;;;;5034688;28;20225;-76
2023/12/05 12:57:37;;;;;;;7.78;3.00;;;24.60;99.90;;;;;;5034970;28;20200;-79
2023/12/05 13:00:13;;;;;;;5.95;2.97;;;24.60;99.90;;;;;;5034370;28;20190;-78
2023/12/05 13:02:46;;;;;;;7.55;3.25;;;24.60;99.90;;;;;;5034743;28;20237;-75
2023/12/05 13:05:17;;;;;;;5.90;2.85;;;24.60;99.90;;;;;;5034388;28;20217;-78
2023/12/05 13:07:53;;;;;;;6.00;3.10;;;24.60;99.90;;;;;;5034496;28;20200;-77
2023/12/05 13:10:25;;;;;;;5.70;2.92;;;24.50;99.90;;;;;;5034507;28;20194;-78
2023/12/05 13:12:55;;;;;;;6.18;2.90;;;24.50;99.90;;;;;;5034205;28;20197;-79
2023/12/05 13:15:30;;;;;;;6.20;2.95;;;24.50;99.90;;;;;;5034141;28;20226;-75
2023/12/05 13:18:06;;;;;;;9.15;3.33;;;24.40;99.90;;;;;;5034233;28;20277;-78
2023/12/05 13:20:52;;;;;;;6.40;3.03;;;24.40;99.90;;;;;;5034196;28;20193;-78
2023/12/05 13:23:23;;;;;;;7.05;3.00;;;24.40;99.90;;;;;;5033925;28;20226;-78
2023/12/05 13:25:54;;;;;;;6.28;3.10;;;24.30;99.90;;;;;;5034059;28;20229;-76
2023/12/05 13:28:26;;;;;;;10.68;3.13;;;24.30;99.90;;;;;;5034045;28;20281;-77
2023/12/05 13:30:56;;;;;;;8.30;3.20;;;24.20;99.90;;;;;;5033698;28;20226;-76
2023/12/05 13:33:29;;;;;;;6.97;3.33;;;24.20;99.90;;;;;;5033409;28;20193;-78
2023/12/05 13:36:00;;;;;;;7.25;2.90;;;24.20;99.90;;;;;;5033968;28;20194;-78
2023/12/05 13:38:31;;;;;;;7.35;3.15;;;24.10;99.90;;;;;;5034188;28;20230;-76
2023/12/05 13:41:02;;;;;;;5.03;2.70;;;24.10;99.90;;;;;;5033860;28;20272;-78
2023/12/05 13:43:32;;;;;;;7.82;3.20;;;24.10;99.90;;;;;;5033541;28;20236;-78
2023/12/05 13:46:04;;;;;;;6.75;3.10;;;24.00;99.90;;;;;;5034146;28;20269;-76
2023/12/05 13:48:36;;;;;;;5.80;3.00;;;24.10;99.90;;;;;;5033787;28;20187;-76
2023/12/05 13:51:08;;;;;;;7.18;3.42;;;24.00;99.90;;;;;;5033651;28;20241;-77
2023/12/05 13:53:39;;;;;;;5.22;2.90;;;24.00;99.90;;;;;;5033616;28;20198;-77
2023/12/05 13:56:11;;;;;;;8.73;3.60;;;24.10;99.90;;;;;;5033632;28;20281;-77
2023/12/05 13:58:43;;;;;;;5.95;2.95;;;24.00;99.90;;;;;;5033721;28;20241;-76
2023/12/05 14:01:14;;;;;;;4.28;3.05;;;24.10;99.90;;;;;;5033557;28;20205;-77
2023/12/05 14:03:46;;;;;;;5.85;2.95;;;24.10;99.90;;;;;;5033444;28;20606;-77
2023/12/05 14:06:17;;;;;;;6.63;3.17;;;24.00;99.90;;;;;;5033344;28;20225;-77
2023/12/05 14:08:48;;;;;;;8.45;3.20;;;24.00;99.90;;;;;;5033446;28;20281;-77
2023/12/05 14:11:19;;;;;;;4.95;2.90;;;24.00;99.90;;;;;;5033456;28;20190;-76
2023/12/05 14:13:50;;;;;;;7.78;3.40;;;24.00;99.90;;;;;;5033452;28;20269;-78
2023/12/05 14:16:21;;;;;;;6.10;3.05;;;24.00;99.90;;;;;;5033378;28;20308;-75
2023/12/05 14:18:54;;;;;;;6.05;3.50;;;24.00;99.90;;;;;;5033369;28;20225;-76
2023/12/05 14:21:24;;;;;;;7.97;3.22;;;24.00;99.90;;;;;;5033328;28;20233;-78
2023/12/05 14:23:55;;;;;;;7.38;3.35;;;24.00;99.90;;;;;;5033076;28;20236;-78
2023/12/05 14:26:26;;;;;;;5.82;3.20;;;24.00;99.90;;;;;;5033230;28;20752;-78
2023/12/05 14:28:57;;;;;;;7.00;3.30;;;23.90;99.90;;;;;;5033064;28;20706;-78
2023/12/05 14:31:28;;;;;;;5.43;3.28;;;23.90;99.90;;;;;;5033031;28;20218;-75
2023/12/05 14:34:00;;;;;;;7.38;3.33;;;23.90;99.90;;;;;;5033409;28;20649;-77
2023/12/05 14:36:31;;;;;;;6.45;3.05;;;23.90;99.90;;;;;;5033430;28;20222;-78
2023/12/05 14:39:02;;;;;;;6.38;3.38;;;23.80;99.90;;;;;;5033145;28;20230;-77
2023/12/05 14:41:33;;;;;;;7.05;3.38;;;23.80;99.90;;;;;;5032913;28;20273;-77
2023/12/05 14:44:04;;;;;;;9.35;3.78;;;23.80;99.90;;;;;;5033120;28;20285;-77
2023/12/05 14:46:35;;;;;;;6.45;3.30;;;23.80;99.90;;;;;;5036911;28;20226;-76
2023/12/05 14:49:08;;;;;;;6.03;2.95;;;23.80;99.90;;;;;;5037384;28;20645;-77
2023/12/05 14:51:39;;;;;;;6.50;3.67;;;23.70;99.90;;;;;;5036916;28;20252;-77
2023/12/05 14:54:10;;;;;;;9.63;3.42;;;23.70;99.90;;;;;;5037283;28;20206;-77
2023/12/05 14:56:42;;;;;;;7.13;3.10;;;23.70;99.90;;;;;;5036733;28;20191;-77
2023/12/05 14:59:13;;;;;;;6.35;2.95;;;23.70;99.90;;;;;;5036919;28;20194;-76
2023/12/05 15:01:44;;;;;;;6.80;2.90;;;23.70;99.90;;;;;;5036753;28;20241;-76
2023/12/05 15:04:16;;;;;;;8.10;3.45;;;23.70;99.90;;;;;;5036777;28;20273;-77
2023/12/05 15:06:47;;;;;;;5.65;3.35;;;23.70;99.90;;;;;;5036686;28;20218;-75
2023/12/05 15:09:18;;;;;;;6.25;3.20;;;23.70;99.90;;;;;;5036720;28;20208;-75
2023/12/05 15:11:49;;;;;;;5.88;3.28;;;23.70;99.90;;;;;;5036383;28;20286;-76
2023/12/05 15:14:20;;;;;;;6.00;3.30;;;23.70;99.90;;;;;;5036923;28;20190;-77
2023/12/05 15:16:50;;;;;;;8.90;3.53;;;23.70;99.90;;;;;;5036592;28;20205;-77
2023/12/05 15:19:23;;;;;;;7.20;3.30;;;23.70;99.90;;;;;;5036478;28;20269;-77
2023/12/05 15:21:54;;;;;;;6.22;3.25;;;23.70;99.90;;;;;;5036643;28;20282;-75
2023/12/05 15:24:25;;;;;;;6.05;3.15;;;23.70;99.90;;;;;;5036207;28;20260;-76
2023/12/05 15:26:57;;;;;;;6.80;3.40;;;23.70;99.90;;;;;;5036115;28;20224;-75
2023/12/05 15:29:28;;;;;;;4.97;2.90;;;23.70;99.90;;;;;;5036273;28;20245;-76
2023/12/05 15:31:59;;;;;;;4.97;2.90;;;23.70;99.90;;;;;;5036271;28;20194;-77
2023/12/05 15:34:32;;;;;;;4.97;3.10;;;23.70;99.90;;;;;;5036339;28;20642;-77
2023/12/05 15:37:03;;;;;;;7.47;3.65;;;23.70;99.90;;;;;;5036296;28;20542;-76
2023/12/05 15:39:34;;;;;;;5.65;3.47;;;23.70;99.90;;;;;;5036014;28;20229;-76
2023/12/05 15:42:05;;;;;;;7.55;3.65;;;23.70;99.90;;;;;;5036368;28;20221;-77
2023/12/05 15:44:36;;;;;;;6.97;3.78;;;23.60;99.90;;;;;;5036063;28;20190;-77
2023/12/05 15:47:06;;;;;;;8.68;4.07;;;23.60;99.90;;;;;;5036280;28;20301;-76
2023/12/05 15:49:39;;;;;;;5.90;3.63;;;23.60;99.90;;;;;;5035961;28;20198;-77
2023/12/05 15:52:10;;;;;;;6.65;3.90;;;23.60;99.90;;;;;;5035817;28;20277;-75
2023/12/05 15:54:42;;;;;;;6.20;3.60;;;23.60;99.90;;;;;;5035942;28;20190;-77
2023/12/05 15:57:13;;;;;;;8.52;3.55;;;23.50;99.90;;;;;;5035654;28;20230;-77
2023/12/05 15:59:43;;;;;;;6.30;3.20;;;23.50;99.90;;;;;;5035806;28;20194;-77
2023/12/05 16:02:14;;;;;;;6.60;3.80;;;23.50;99.90;;;;;;5035935;28;20234;-76
2023/12/05 16:04:47;;;;;;;9.32;4.05;;;23.50;99.90;;;;;;5035692;28;20281;-76
2023/12/05 16:07:18;;;;;;;8.35;3.92;;;23.50;99.90;;;;;;5035547;28;20261;-75
2023/12/05 16:09:49;;;;;;;8.98;4.50;;;23.50;99.90;;;;;;5035400;28;20190;-77
2023/12/05 16:12:19;;;;;;;12.18;4.32;;;23.50;99.90;;;;;;5035499;28;20273;-77
2023/12/05 16:14:50;;;;;;;8.00;4.68;;;23.50;99.90;;;;;;5035552;28;20281;-77
2023/12/05 16:17:21;;;;;;;9.27;4.53;;;23.40;99.90;;;;;;5035432;28;20201;-77
2023/12/05 16:19:54;;;;;;;8.93;4.18;;;23.50;99.90;;;;;;5035486;28;20273;-77
2023/12/05 16:22:25;;;;;;;6.88;2.97;;;23.80;99.90;;;;;;5035096;28;20274;-77
2023/12/05 16:24:55;;;;;;;10.18;3.10;;;24.00;99.90;;;;;;5035418;28;20281;-78
2023/12/05 16:27:26;;;;;;;16.48;3.72;;;24.50;99.90;;;;;;5035197;28;20236;-79
2023/12/05 16:29:57;;;;;;;17.63;4.22;;;24.70;99.90;;;;;;5035100;28;20316;-77
2023/12/05 16:32:28;;;;;;;22.85;5.10;;;24.60;99.90;;;;;;5035143;28;20613;-76
2023/12/05 16:35:01;;;;;;;23.02;5.28;;;24.50;99.90;;;;;;5035060;28;20273;-77
2023/12/05 16:37:32;;;;;;;19.80;5.57;;;24.20;99.90;;;;;;5034888;28;20195;-77
2023/12/05 16:40:03;;;;;;;25.30;5.78;;;23.90;99.90;;;;;;5034997;28;20195;-77
2023/12/05 16:42:34;;;;;;;24.33;6.32;;;23.70;99.90;;;;;;5035247;28;20194;-77
2023/12/05 16:45:06;;;;;;;24.05;7.15;;;23.50;99.90;;;;;;5034874;28;20191;-77
2023/12/05 16:47:37;;;;;;;22.02;7.07;;;23.30;99.90;;;;;;5034768;28;20221;-77
2023/12/05 16:50:11;;;;;;;25.23;6.70;;;23.20;99.90;;;;;;5035078;28;20195;-78
2023/12/05 16:52:42;;;;;;;21.20;6.13;;;23.20;99.90;;;;;;5034482;28;20186;-77
2023/12/05 16:55:13;;;;;;;25.80;6.95;;;23.00;99.90;;;;;;5034771;28;20216;-78
2023/12/05 16:57:45;;;;;;;19.60;6.07;;;23.00;99.90;;;;;;5035076;28;20233;-76
2023/12/05 17:00:21;;;;;;;30.83;6.75;;;22.90;99.90;;;;;;5034905;28;20278;-78
2023/12/05 17:02:52;;;;;;;21.58;6.65;;;22.90;99.90;;;;;;5034600;28;20277;-79
2023/12/05 17:05:29;;;;;;;26.33;7.55;;;22.80;99.90;;;;;;5035405;28;20206;-80
2023/12/05 17:08:01;;;;;;;21.25;6.78;;;22.80;99.90;;;;;;5033577;28;20275;-80
2023/12/05 17:10:32;;;;;;;21.52;7.30;;;22.80;99.90;;;;;;5034525;28;20190;-79
2023/12/05 17:13:03;;;;;;;21.80;6.40;;;22.70;99.90;;;;;;5034333;28;20647;-78
2023/12/05 17:15:34;;;;;;;15.35;6.07;;;22.70;99.90;;;;;;5034419;28;20212;-75
2023/12/05 17:18:05;;;;;;;19.83;6.10;;;22.70;99.90;;;;;;5034359;28;20643;-76
2023/12/05 17:20:37;;;;;;;24.73;6.65;;;22.70;99.90;;;;;;5034261;28;20194;-79
2023/12/05 17:23:08;;;;;;;18.92;6.20;;;22.70;99.90;;;;;;5034063;28;20719;-78
2023/12/05 17:25:39;;;;;;;17.02;6.03;;;22.70;99.90;;;;;;5034265;28;20194;-77
2023/12/05 17:28:10;;;;;;;18.30;6.63;;;22.70;99.90;;;;;;5034014;28;20585;-78
2023/12/05 17:30:41;;;;;;;21.77;6.07;;;22.70;99.90;;;;;;5033999;28;20313;-79
2023/12/05 17:33:12;;;;;;;14.57;5.28;;;22.70;99.90;;;;;;5033993;28;20207;-77
2023/12/05 17:35:45;;;;;;;18.48;5.70;;;22.70;99.90;;;;;;5033810;28;20227;-77